sensor_id;sensor_type;location;lat;lon;timestamp;pressure;altitude;pressure_sealevel;temperature;humidity
39051;BME280;24805;55.852;37.644;2022-09-09T00:04:26;100116.28;;;8.38;60.37
39051;BME280;24805;55.852;37.644;2022-09-09T00:09:36;100124.16;;;8.47;59.95
39051;BME280;24805;55.852;37.644;2022-09-09T00:15:00;100127.47;;;8.49;60.36
39051;BME280;24805;55.852;37.644;2022-09-09T00:25:46;100120.00;;;8.45;60.48
39051;BME280;24805;55.852;37.644;2022-09-09T00:30:43;100134.53;;;8.31;59.80
39051;BME280;24805;55.852;37.644;2022-09-09T00:36:00;100135.47;;;8.40;60.13
39051;BME280;24805;55.852;37.644;2022-09-09T00:41:11;100129.97;;;8.33;60.69
39051;BME280;24805;55.852;37.644;2022-09-09T00:57:13;100147.06;;;8.29;60.72
39051;BME280;24805;55.852;37.644;2022-09-09T01:02:38;100160.25;;;8.39;61.06
39051;BME280;24805;55.852;37.644;2022-09-09T01:07:44;100161.81;;;8.22;60.82
39051;BME280;24805;55.852;37.644;2022-09-09T01:12:51;100164.69;;;8.11;60.94
39051;BME280;24805;55.852;37.644;2022-09-09T01:18:04;100171.78;;;8.10;61.76
39051;BME280;24805;55.852;37.644;2022-09-09T01:29:11;100147.66;;;7.86;61.19
39051;BME280;24805;55.852;37.644;2022-09-09T01:34:15;100170.19;;;7.80;61.96
39051;BME280;24805;55.852;37.644;2022-09-09T01:39:20;100178.81;;;7.82;62.17
39051;BME280;24805;55.852;37.644;2022-09-09T01:44:31;100175.81;;;7.77;61.86
39051;BME280;24805;55.852;37.644;2022-09-09T01:49:34;100185.38;;;7.78;62.43
39051;BME280;24805;55.852;37.644;2022-09-09T01:54:44;100190.66;;;7.78;62.34
39051;BME280;24805;55.852;37.644;2022-09-09T02:00:09;100200.50;;;7.86;62.34
39051;BME280;24805;55.852;37.644;2022-09-09T02:05:27;100197.16;;;7.84;61.94
39051;BME280;24805;55.852;37.644;2022-09-09T02:16:08;100198.28;;;7.81;62.15
39051;BME280;24805;55.852;37.644;2022-09-09T02:21:12;100209.31;;;7.67;62.49
39051;BME280;24805;55.852;37.644;2022-09-09T02:26:16;100206.28;;;7.52;62.89
39051;BME280;24805;55.852;37.644;2022-09-09T02:31:26;100207.28;;;7.32;62.89
39051;BME280;24805;55.852;37.644;2022-09-09T02:36:36;100215.75;;;7.16;63.22
39051;BME280;24805;55.852;37.644;2022-09-09T02:41:40;100226.56;;;6.94;64.66
39051;BME280;24805;55.852;37.644;2022-09-09T02:47:00;100239.59;;;6.86;64.80
39051;BME280;24805;55.852;37.644;2022-09-09T02:52:07;100239.97;;;6.62;65.51
39051;BME280;24805;55.852;37.644;2022-09-09T02:57:15;100237.25;;;6.43;66.34
39051;BME280;24805;55.852;37.644;2022-09-09T03:02:22;100257.81;;;6.39;66.38
39051;BME280;24805;55.852;37.644;2022-09-09T03:07:29;100245.03;;;6.35;66.93
39051;BME280;24805;55.852;37.644;2022-09-09T03:12:31;100257.38;;;6.34;66.86
39051;BME280;24805;55.852;37.644;2022-09-09T03:17:35;100241.22;;;6.28;67.16
39051;BME280;24805;55.852;37.644;2022-09-09T03:22:38;100239.03;;;6.33;67.11
39051;BME280;24805;55.852;37.644;2022-09-09T03:27:40;100266.44;;;6.51;67.36
39051;BME280;24805;55.852;37.644;2022-09-09T03:32:42;100264.78;;;6.60;67.18
39051;BME280;24805;55.852;37.644;2022-09-09T03:37:49;100265.53;;;6.71;66.71
39051;BME280;24805;55.852;37.644;2022-09-09T03:42:52;100276.53;;;6.86;66.28
39051;BME280;24805;55.852;37.644;2022-09-09T03:47:54;100275.16;;;7.01;65.91
39051;BME280;24805;55.852;37.644;2022-09-09T03:52:56;100287.16;;;7.53;63.70
39051;BME280;24805;55.852;37.644;2022-09-09T03:57:58;100257.13;;;7.06;64.67
39051;BME280;24805;55.852;37.644;2022-09-09T04:03:03;100268.09;;;7.02;64.15
39051;BME280;24805;55.852;37.644;2022-09-09T04:08:08;100286.31;;;7.14;64.58
39051;BME280;24805;55.852;37.644;2022-09-09T04:13:10;100296.88;;;7.14;64.14
39051;BME280;24805;55.852;37.644;2022-09-09T04:18:14;100293.66;;;7.20;64.90
39051;BME280;24805;55.852;37.644;2022-09-09T04:23:21;100300.19;;;7.26;64.34
39051;BME280;24805;55.852;37.644;2022-09-09T04:28:26;100273.53;;;7.29;64.83
39051;BME280;24805;55.852;37.644;2022-09-09T04:33:29;100297.56;;;7.45;64.26
39051;BME280;24805;55.852;37.644;2022-09-09T04:38:32;100306.22;;;7.57;63.35
39051;BME280;24805;55.852;37.644;2022-09-09T04:43:35;100306.63;;;7.72;63.43
39051;BME280;24805;55.852;37.644;2022-09-09T04:48:39;100302.84;;;7.84;63.14
39051;BME280;24805;55.852;37.644;2022-09-09T04:53:43;100312.53;;;8.03;61.99
39051;BME280;24805;55.852;37.644;2022-09-09T04:58:47;100301.78;;;8.23;61.71
39051;BME280;24805;55.852;37.644;2022-09-09T05:03:51;100303.66;;;8.87;60.95
39051;BME280;24805;55.852;37.644;2022-09-09T05:08:56;100315.22;;;10.62;57.36
39051;BME280;24805;55.852;37.644;2022-09-09T05:14:03;100313.91;;;12.16;53.48
39051;BME280;24805;55.852;37.644;2022-09-09T05:19:06;100328.56;;;13.68;49.94
39051;BME280;24805;55.852;37.644;2022-09-09T05:24:21;100326.09;;;15.15;46.88
39051;BME280;24805;55.852;37.644;2022-09-09T05:29:28;100330.59;;;16.14;43.96
39051;BME280;24805;55.852;37.644;2022-09-09T05:34:31;100318.19;;;17.04;42.04
39051;BME280;24805;55.852;37.644;2022-09-09T05:39:35;100327.34;;;17.29;40.38
39051;BME280;24805;55.852;37.644;2022-09-09T05:44:38;100342.34;;;17.84;39.08
39051;BME280;24805;55.852;37.644;2022-09-09T05:49:41;100340.69;;;18.63;37.49
39051;BME280;24805;55.852;37.644;2022-09-09T05:54:44;100321.16;;;19.51;35.48
39051;BME280;24805;55.852;37.644;2022-09-09T05:59:46;100329.97;;;19.97;34.48
39051;BME280;24805;55.852;37.644;2022-09-09T06:04:48;100331.53;;;20.29;33.34
39051;BME280;24805;55.852;37.644;2022-09-09T06:09:50;100336.41;;;20.82;31.55
39051;BME280;24805;55.852;37.644;2022-09-09T06:14:53;100339.66;;;21.57;30.27
39051;BME280;24805;55.852;37.644;2022-09-09T06:19:55;100346.97;;;22.21;29.61
39051;BME280;24805;55.852;37.644;2022-09-09T06:24:58;100356.19;;;23.30;27.88
39051;BME280;24805;55.852;37.644;2022-09-09T06:30:00;100358.44;;;24.07;26.55
39051;BME280;24805;55.852;37.644;2022-09-09T06:35:04;100365.13;;;24.33;25.85
39051;BME280;24805;55.852;37.644;2022-09-09T06:40:07;100363.06;;;24.95;25.01
39051;BME280;24805;55.852;37.644;2022-09-09T06:45:11;100363.78;;;26.37;23.36
39051;BME280;24805;55.852;37.644;2022-09-09T06:50:22;100363.50;;;27.33;21.93
39051;BME280;24805;55.852;37.644;2022-09-09T06:55:25;100360.78;;;27.43;21.96
39051;BME280;24805;55.852;37.644;2022-09-09T07:00:27;100368.81;;;28.00;20.69
39051;BME280;24805;55.852;37.644;2022-09-09T07:05:30;100367.75;;;28.47;20.48
39051;BME280;24805;55.852;37.644;2022-09-09T07:10:32;100369.72;;;29.26;19.88
39051;BME280;24805;55.852;37.644;2022-09-09T07:15:36;100373.75;;;29.88;18.65
39051;BME280;24805;55.852;37.644;2022-09-09T07:20:39;100377.59;;;30.26;18.43
39051;BME280;24805;55.852;37.644;2022-09-09T07:25:45;100386.47;;;30.76;18.36
39051;BME280;24805;55.852;37.644;2022-09-09T07:30:59;100381.63;;;30.00;19.11
39051;BME280;24805;55.852;37.644;2022-09-09T07:36:28;100392.28;;;28.77;19.13
39051;BME280;24805;55.852;37.644;2022-09-09T07:41:37;100395.03;;;28.17;19.24
39051;BME280;24805;55.852;37.644;2022-09-09T07:46:42;100390.69;;;26.81;20.27
39051;BME280;24805;55.852;37.644;2022-09-09T07:51:46;100411.25;;;25.27;22.21
39051;BME280;24805;55.852;37.644;2022-09-09T07:56:51;100401.78;;;25.73;21.04
39051;BME280;24805;55.852;37.644;2022-09-09T08:01:56;100409.78;;;24.81;21.82
39051;BME280;24805;55.852;37.644;2022-09-09T08:07:02;100409.19;;;23.95;22.97
39051;BME280;24805;55.852;37.644;2022-09-09T08:12:11;100406.94;;;24.54;22.10
39051;BME280;24805;55.852;37.644;2022-09-09T08:17:15;100407.94;;;24.48;22.67
39051;BME280;24805;55.852;37.644;2022-09-09T08:22:17;100408.94;;;23.96;22.60
39051;BME280;24805;55.852;37.644;2022-09-09T08:27:20;100411.72;;;24.01;22.86
39051;BME280;24805;55.852;37.644;2022-09-09T08:32:22;100411.13;;;24.95;21.69
39051;BME280;24805;55.852;37.644;2022-09-09T08:37:25;100403.88;;;26.25;21.07
39051;BME280;24805;55.852;37.644;2022-09-09T08:42:56;100421.25;;;30.07;18.70
39051;BME280;24805;55.852;37.644;2022-09-09T08:53:14;100423.00;;;36.77;12.37
39051;BME280;24805;55.852;37.644;2022-09-09T08:58:26;100400.50;;;33.49;13.70
39051;BME280;24805;55.852;37.644;2022-09-09T09:09:52;100413.56;;;24.80;21.02
39051;BME280;24805;55.852;37.644;2022-09-09T09:15:14;100418.44;;;24.44;22.28
39051;BME280;24805;55.852;37.644;2022-09-09T09:20:27;100415.19;;;28.97;18.03
39051;BME280;24805;55.852;37.644;2022-09-09T09:25:35;100412.22;;;33.41;14.67
39051;BME280;24805;55.852;37.644;2022-09-09T09:30:52;100413.84;;;33.42;13.89
39051;BME280;24805;55.852;37.644;2022-09-09T09:35:57;100404.28;;;29.61;16.40
39051;BME280;24805;55.852;37.644;2022-09-09T09:41:03;100421.06;;;26.57;19.39
39051;BME280;24805;55.852;37.644;2022-09-09T09:46:19;100416.94;;;25.25;21.06
39051;BME280;24805;55.852;37.644;2022-09-09T09:51:23;100399.91;;;23.51;21.99
39051;BME280;24805;55.852;37.644;2022-09-09T09:56:27;100399.97;;;24.58;21.81
39051;BME280;24805;55.852;37.644;2022-09-09T10:01:38;100406.53;;;25.17;20.82
39051;BME280;24805;55.852;37.644;2022-09-09T10:06:44;100406.63;;;26.57;19.66
39051;BME280;24805;55.852;37.644;2022-09-09T10:22:23;100419.69;;;26.55;18.80
39051;BME280;24805;55.852;37.644;2022-09-09T10:33:10;100421.16;;;23.19;22.48
39051;BME280;24805;55.852;37.644;2022-09-09T10:49:06;100436.41;;;27.73;19.26
39051;BME280;24805;55.852;37.644;2022-09-09T10:54:16;100420.91;;;31.54;15.22
39051;BME280;24805;55.852;37.644;2022-09-09T10:59:31;100432.88;;;31.58;15.14
39051;BME280;24805;55.852;37.644;2022-09-09T11:09:49;100408.91;;;25.57;19.19
39051;BME280;24805;55.852;37.644;2022-09-09T11:15:01;100415.25;;;24.47;20.35
39051;BME280;24805;55.852;37.644;2022-09-09T11:20:11;100420.25;;;23.13;21.61
39051;BME280;24805;55.852;37.644;2022-09-09T11:25:38;100430.31;;;22.24;23.17
39051;BME280;24805;55.852;37.644;2022-09-09T11:36:06;100420.13;;;22.61;23.53
39051;BME280;24805;55.852;37.644;2022-09-09T11:41:14;100419.13;;;26.26;19.72
39051;BME280;24805;55.852;37.644;2022-09-09T11:46:32;100424.25;;;28.31;17.56
39051;BME280;24805;55.852;37.644;2022-09-09T11:51:37;100425.56;;;29.69;15.90
39051;BME280;24805;55.852;37.644;2022-09-09T11:56:45;100419.59;;;30.06;15.49
39051;BME280;24805;55.852;37.644;2022-09-09T12:02:03;100430.09;;;27.57;17.17
39051;BME280;24805;55.852;37.644;2022-09-09T12:07:25;100414.94;;;25.16;19.66
39051;BME280;24805;55.852;37.644;2022-09-09T12:12:36;100424.25;;;22.99;22.12
39051;BME280;24805;55.852;37.644;2022-09-09T12:17:46;100420.47;;;22.30;23.24
39051;BME280;24805;55.852;37.644;2022-09-09T12:22:56;100412.06;;;24.89;20.19
39051;BME280;24805;55.852;37.644;2022-09-09T12:33:11;100419.25;;;27.88;17.01
39051;BME280;24805;55.852;37.644;2022-09-09T12:43:32;100418.44;;;24.27;20.09
39051;BME280;24805;55.852;37.644;2022-09-09T12:48:37;100413.94;;;22.96;21.75
39051;BME280;24805;55.852;37.644;2022-09-09T12:53:40;100407.50;;;21.60;23.26
39051;BME280;24805;55.852;37.644;2022-09-09T12:58:45;100404.56;;;20.71;24.79
39051;BME280;24805;55.852;37.644;2022-09-09T13:03:49;100402.72;;;19.83;26.47
39051;BME280;24805;55.852;37.644;2022-09-09T13:08:52;100406.25;;;20.47;26.18
39051;BME280;24805;55.852;37.644;2022-09-09T13:13:56;100413.56;;;22.57;23.60
39051;BME280;24805;55.852;37.644;2022-09-09T13:19:13;100403.78;;;24.95;21.34
39051;BME280;24805;55.852;37.644;2022-09-09T13:24:34;100411.81;;;25.99;19.47
39051;BME280;24805;55.852;37.644;2022-09-09T13:29:36;100399.16;;;25.61;18.85
39051;BME280;24805;55.852;37.644;2022-09-09T13:34:39;100410.09;;;25.23;19.79
39051;BME280;24805;55.852;37.644;2022-09-09T13:39:51;100403.00;;;26.14;19.17
39051;BME280;24805;55.852;37.644;2022-09-09T13:44:58;100405.28;;;26.27;18.89
39051;BME280;24805;55.852;37.644;2022-09-09T13:50:23;100402.97;;;26.83;19.22
39051;BME280;24805;55.852;37.644;2022-09-09T13:55:27;100398.56;;;26.35;18.23
39051;BME280;24805;55.852;37.644;2022-09-09T14:00:31;100398.00;;;25.79;18.92
39051;BME280;24805;55.852;37.644;2022-09-09T14:05:33;100376.13;;;24.98;19.07
39051;BME280;24805;55.852;37.644;2022-09-09T14:10:36;100392.53;;;22.94;21.07
39051;BME280;24805;55.852;37.644;2022-09-09T14:15:38;100390.91;;;21.09;23.29
39051;BME280;24805;55.852;37.644;2022-09-09T14:20:40;100393.44;;;19.79;24.78
39051;BME280;24805;55.852;37.644;2022-09-09T14:25:43;100405.19;;;18.69;26.31
39051;BME280;24805;55.852;37.644;2022-09-09T14:30:45;100395.63;;;17.81;27.70
39051;BME280;24805;55.852;37.644;2022-09-09T14:35:48;100401.97;;;17.12;28.52
39051;BME280;24805;55.852;37.644;2022-09-09T14:40:56;100401.28;;;16.69;29.83
39051;BME280;24805;55.852;37.644;2022-09-09T14:46:08;100407.94;;;16.52;30.15
39051;BME280;24805;55.852;37.644;2022-09-09T14:51:13;100406.84;;;16.18;31.09
39051;BME280;24805;55.852;37.644;2022-09-09T14:56:19;100399.56;;;15.91;31.58
39051;BME280;24805;55.852;37.644;2022-09-09T15:01:24;100403.63;;;15.66;31.77
39051;BME280;24805;55.852;37.644;2022-09-09T15:06:31;100404.31;;;15.38;32.21
39051;BME280;24805;55.852;37.644;2022-09-09T15:11:36;100409.97;;;15.14;32.73
39051;BME280;24805;55.852;37.644;2022-09-09T15:16:42;100399.19;;;14.93;33.03
39051;BME280;24805;55.852;37.644;2022-09-09T15:21:44;100401.28;;;15.27;30.69
39051;BME280;24805;55.852;37.644;2022-09-09T15:26:46;100399.91;;;14.57;33.75
39051;BME280;24805;55.852;37.644;2022-09-09T15:31:48;100409.00;;;14.40;34.62
39051;BME280;24805;55.852;37.644;2022-09-09T15:36:50;100415.41;;;14.16;35.84
39051;BME280;24805;55.852;37.644;2022-09-09T15:41:53;100416.59;;;13.91;37.42
39051;BME280;24805;55.852;37.644;2022-09-09T15:46:55;100422.38;;;13.71;37.62
39051;BME280;24805;55.852;37.644;2022-09-09T15:51:59;100415.03;;;13.42;38.13
39051;BME280;24805;55.852;37.644;2022-09-09T15:57:07;100436.25;;;13.28;38.78
39051;BME280;24805;55.852;37.644;2022-09-09T16:02:10;100433.16;;;13.00;39.29
39051;BME280;24805;55.852;37.644;2022-09-09T16:07:12;100434.72;;;12.78;40.15
39051;BME280;24805;55.852;37.644;2022-09-09T16:12:15;100445.22;;;12.55;40.72
39051;BME280;24805;55.852;37.644;2022-09-09T16:17:18;100441.56;;;12.40;41.28
39051;BME280;24805;55.852;37.644;2022-09-09T16:22:22;100451.06;;;12.26;40.98
39051;BME280;24805;55.852;37.644;2022-09-09T16:27:25;100444.91;;;12.10;41.11
39051;BME280;24805;55.852;37.644;2022-09-09T16:32:27;100460.03;;;12.50;36.62
39051;BME280;24805;55.852;37.644;2022-09-09T16:37:29;100457.34;;;12.01;41.52
39051;BME280;24805;55.852;37.644;2022-09-09T16:42:32;100466.97;;;11.94;42.08
39051;BME280;24805;55.852;37.644;2022-09-09T16:47:40;100444.63;;;11.70;42.23
39051;BME280;24805;55.852;37.644;2022-09-09T16:52:42;100470.16;;;12.14;36.98
39051;BME280;24805;55.852;37.644;2022-09-09T16:57:44;100475.91;;;11.77;42.34
39051;BME280;24805;55.852;37.644;2022-09-09T17:02:46;100483.66;;;11.70;42.98
39051;BME280;24805;55.852;37.644;2022-09-09T17:07:49;100478.81;;;11.57;43.24
39051;BME280;24805;55.852;37.644;2022-09-09T17:12:51;100488.09;;;11.53;43.53
39051;BME280;24805;55.852;37.644;2022-09-09T17:17:54;100486.38;;;11.44;43.29
39051;BME280;24805;55.852;37.644;2022-09-09T17:22:56;100468.72;;;11.27;44.01
39051;BME280;24805;55.852;37.644;2022-09-09T17:27:59;100484.78;;;11.59;40.16
39051;BME280;24805;55.852;37.644;2022-09-09T17:33:02;100491.53;;;11.12;44.61
39051;BME280;24805;55.852;37.644;2022-09-09T17:38:05;100497.44;;;10.97;45.06
39051;BME280;24805;55.852;37.644;2022-09-09T17:43:07;100499.44;;;11.29;41.21
39051;BME280;24805;55.852;37.644;2022-09-09T17:48:10;100503.94;;;10.77;45.65
39051;BME280;24805;55.852;37.644;2022-09-09T17:53:12;100509.63;;;10.64;46.39
39051;BME280;24805;55.852;37.644;2022-09-09T17:58:14;100507.84;;;10.91;41.82
39051;BME280;24805;55.852;37.644;2022-09-09T18:03:17;100506.94;;;10.82;41.73
39051;BME280;24805;55.852;37.644;2022-09-09T18:08:19;100499.28;;;10.35;46.36
39051;BME280;24805;55.852;37.644;2022-09-09T18:13:22;100503.28;;;10.22;47.11
39051;BME280;24805;55.852;37.644;2022-09-09T18:18:25;100505.84;;;10.14;47.37
39051;BME280;24805;55.852;37.644;2022-09-09T18:23:29;100488.84;;;10.07;47.71
39051;BME280;24805;55.852;37.644;2022-09-09T18:28:32;100495.72;;;9.99;47.67
39051;BME280;24805;55.852;37.644;2022-09-09T18:33:35;100491.94;;;10.29;44.27
39051;BME280;24805;55.852;37.644;2022-09-09T18:38:38;100494.84;;;9.91;48.48
39051;BME280;24805;55.852;37.644;2022-09-09T18:43:40;100500.09;;;10.18;44.21
39051;BME280;24805;55.852;37.644;2022-09-09T18:48:44;100440.84;;;9.47;48.52
39051;BME280;24805;55.852;37.644;2022-09-09T18:53:54;100511.88;;;9.88;48.79
39051;BME280;24805;55.852;37.644;2022-09-09T18:58:59;100504.97;;;9.78;49.11
39051;BME280;24805;55.852;37.644;2022-09-09T19:04:03;100510.84;;;9.72;49.69
39051;BME280;24805;55.852;37.644;2022-09-09T19:09:11;100512.66;;;9.71;49.58
39051;BME280;24805;55.852;37.644;2022-09-09T19:14:15;100514.00;;;9.57;49.78
39051;BME280;24805;55.852;37.644;2022-09-09T19:19:23;100520.13;;;9.58;49.47
39051;BME280;24805;55.852;37.644;2022-09-09T19:24:28;100515.41;;;9.52;50.17
39051;BME280;24805;55.852;37.644;2022-09-09T19:29:34;100513.06;;;9.49;50.01
39051;BME280;24805;55.852;37.644;2022-09-09T19:34:37;100513.63;;;9.43;49.74
39051;BME280;24805;55.852;37.644;2022-09-09T19:39:39;100520.31;;;9.74;46.64
39051;BME280;24805;55.852;37.644;2022-09-09T19:44:41;100523.44;;;9.32;49.97
39051;BME280;24805;55.852;37.644;2022-09-09T19:49:43;100524.75;;;9.56;46.16
39051;BME280;24805;55.852;37.644;2022-09-09T19:54:48;100528.81;;;9.13;50.25
39051;BME280;24805;55.852;37.644;2022-09-09T19:59:50;100528.81;;;9.41;46.62
39051;BME280;24805;55.852;37.644;2022-09-09T20:04:52;100536.63;;;9.05;50.50
39051;BME280;24805;55.852;37.644;2022-09-09T20:09:55;100541.81;;;8.97;50.68
39051;BME280;24805;55.852;37.644;2022-09-09T20:14:57;100542.09;;;8.94;51.36
39051;BME280;24805;55.852;37.644;2022-09-09T20:19:59;100546.53;;;8.93;51.12
39051;BME280;24805;55.852;37.644;2022-09-09T20:25:01;100543.63;;;8.87;51.33
39051;BME280;24805;55.852;37.644;2022-09-09T20:30:04;100557.69;;;8.87;51.56
39051;BME280;24805;55.852;37.644;2022-09-09T20:35:07;100554.06;;;8.88;51.92
39051;BME280;24805;55.852;37.644;2022-09-09T20:40:09;100552.59;;;9.23;48.54
39051;BME280;24805;55.852;37.644;2022-09-09T20:45:11;100549.47;;;8.90;51.49
39051;BME280;24805;55.852;37.644;2022-09-09T20:50:17;100554.34;;;8.85;51.89
39051;BME280;24805;55.852;37.644;2022-09-09T20:55:19;100553.19;;;9.17;48.86
39051;BME280;24805;55.852;37.644;2022-09-09T21:00:21;100558.69;;;8.77;52.80
39051;BME280;24805;55.852;37.644;2022-09-09T21:05:23;100558.41;;;8.70;52.85
39051;BME280;24805;55.852;37.644;2022-09-09T21:10:26;100557.97;;;8.65;52.84
39051;BME280;24805;55.852;37.644;2022-09-09T21:15:28;100557.81;;;8.95;49.32
39051;BME280;24805;55.852;37.644;2022-09-09T21:20:31;100546.59;;;8.55;53.00
39051;BME280;24805;55.852;37.644;2022-09-09T21:25:33;100560.19;;;8.89;49.07
39051;BME280;24805;55.852;37.644;2022-09-09T21:30:36;100561.19;;;8.59;53.68
39051;BME280;24805;55.852;37.644;2022-09-09T21:35:45;100562.31;;;8.56;54.13
39051;BME280;24805;55.852;37.644;2022-09-09T21:40:47;100569.28;;;8.57;54.68
39051;BME280;24805;55.852;37.644;2022-09-09T21:45:53;100564.81;;;8.58;54.67
39051;BME280;24805;55.852;37.644;2022-09-09T21:50:55;100572.88;;;8.95;50.30
39051;BME280;24805;55.852;37.644;2022-09-09T21:56:09;100563.56;;;8.72;54.07
39051;BME280;24805;55.852;37.644;2022-09-09T22:01:16;100575.09;;;8.61;55.24
39051;BME280;24805;55.852;37.644;2022-09-09T22:06:19;100571.50;;;8.52;54.84
39051;BME280;24805;55.852;37.644;2022-09-09T22:11:21;100575.25;;;8.50;55.24
39051;BME280;24805;55.852;37.644;2022-09-09T22:16:24;100572.88;;;8.47;55.70
39051;BME280;24805;55.852;37.644;2022-09-09T22:21:29;100569.97;;;8.50;55.38
39051;BME280;24805;55.852;37.644;2022-09-09T22:26:34;100574.69;;;8.46;55.41
39051;BME280;24805;55.852;37.644;2022-09-09T22:31:37;100574.56;;;8.38;56.04
39051;BME280;24805;55.852;37.644;2022-09-09T22:36:39;100578.44;;;8.34;56.29
39051;BME280;24805;55.852;37.644;2022-09-09T22:41:41;100573.09;;;8.24;56.54
39051;BME280;24805;55.852;37.644;2022-09-09T22:46:43;100572.91;;;8.56;52.22
39051;BME280;24805;55.852;37.644;2022-09-09T22:51:46;100563.22;;;8.17;57.67
39051;BME280;24805;55.852;37.644;2022-09-09T22:56:49;100574.69;;;8.46;53.97
39051;BME280;24805;55.852;37.644;2022-09-09T23:01:51;100580.84;;;8.07;58.33
39051;BME280;24805;55.852;37.644;2022-09-09T23:06:53;100582.34;;;8.00;58.53
39051;BME280;24805;55.852;37.644;2022-09-09T23:11:55;100581.81;;;7.96;58.55
39051;BME280;24805;55.852;37.644;2022-09-09T23:16:58;100579.84;;;7.88;58.92
39051;BME280;24805;55.852;37.644;2022-09-09T23:22:00;100574.63;;;8.17;55.30
39051;BME280;24805;55.852;37.644;2022-09-09T23:27:02;100584.94;;;7.80;59.28
39051;BME280;24805;55.852;37.644;2022-09-09T23:32:04;100584.78;;;7.72;59.78
39051;BME280;24805;55.852;37.644;2022-09-09T23:37:07;100587.13;;;7.66;60.31
39051;BME280;24805;55.852;37.644;2022-09-09T23:42:11;100585.44;;;7.65;61.49
39051;BME280;24805;55.852;37.644;2022-09-09T23:47:14;100564.81;;;7.49;61.38
39051;BME280;24805;55.852;37.644;2022-09-09T23:52:16;100585.16;;;7.98;57.68
39051;BME280;24805;55.852;37.644;2022-09-09T23:57:18;100591.81;;;7.62;61.17
